createdAt,value
2022-12-08T00:03:25.984Z,-1.92
2022-12-08T00:20:02.903Z,-2.01
2022-12-08T00:23:46.676Z,-2.06
2022-12-08T00:27:31.765Z,-2.13
2022-12-08T00:35:15.980Z,-2.27
2022-12-08T00:38:59.588Z,-2.34
2022-12-08T00:42:43.409Z,-2.29
2022-12-08T00:46:32.119Z,-2.31
2022-12-08T00:50:12.116Z,-2.28
2022-12-08T00:53:53.938Z,-2.25
2022-12-08T01:01:49.952Z,-2.33
2022-12-08T01:05:37.950Z,-2.40
2022-12-08T01:13:43.967Z,-2.49
2022-12-08T01:28:51.778Z,-2.58
2022-12-08T01:32:52.047Z,-2.59
2022-12-08T01:44:43.530Z,-2.82
2022-12-08T01:48:33.111Z,-2.78
2022-12-08T01:53:03.565Z,-2.85
2022-12-08T01:57:18.905Z,-2.91
2022-12-08T02:01:00.275Z,-3.03
2022-12-08T02:08:45.833Z,-3.12
2022-12-08T02:16:43.726Z,-3.17
2022-12-08T02:37:23.845Z,-2.98
2022-12-08T02:41:17.389Z,-2.88
2022-12-08T02:45:16.454Z,-2.83
2022-12-08T02:49:40.745Z,-2.74
2022-12-08T03:05:59.482Z,-2.41
2022-12-08T03:09:55.559Z,-2.35
2022-12-08T03:25:06.939Z,-2.04
2022-12-08T03:28:53.663Z,-1.99
2022-12-08T03:36:41.724Z,-1.90
2022-12-08T03:40:19.595Z,-1.84
2022-12-08T03:51:36.646Z,-1.73
2022-12-08T03:59:03.579Z,-1.67
2022-12-08T04:02:36.805Z,-1.60
2022-12-08T04:06:14.415Z,-1.60
2022-12-08T04:13:44.221Z,-1.49
2022-12-08T04:17:20.651Z,-1.43
2022-12-08T04:20:52.734Z,-1.38
2022-12-08T04:24:23.483Z,-1.40
2022-12-08T04:28:01.394Z,-1.31
2022-12-08T04:31:49.144Z,-1.31
2022-12-08T04:39:20.579Z,-1.16
2022-12-08T04:46:48.603Z,-1.13
2022-12-08T04:54:11.537Z,-1.01
2022-12-08T04:57:52.501Z,-1.05
2022-12-08T05:01:32.945Z,-1.05
2022-12-08T05:05:12.886Z,-1.05
2022-12-08T05:08:59.431Z,-0.89
2022-12-08T05:16:30.800Z,-0.90
2022-12-08T05:20:11.675Z,-0.91
2022-12-08T05:23:51.199Z,-0.93
2022-12-08T05:27:30.493Z,-0.87
2022-12-08T05:31:10.523Z,-0.90
2022-12-08T05:34:55.612Z,-0.87
2022-12-08T05:38:31.479Z,-0.83
2022-12-08T05:46:18.533Z,-0.85
2022-12-08T05:49:55.869Z,-0.84
2022-12-08T05:57:43.909Z,-0.73
2022-12-08T06:01:31.998Z,-0.73
2022-12-08T06:04:59.887Z,-0.72
2022-12-08T06:12:21.907Z,-0.59
2022-12-08T06:16:07.782Z,-0.63
2022-12-08T06:19:32.808Z,-0.66
2022-12-08T06:23:06.904Z,-0.70
2022-12-08T06:31:12.477Z,-0.62
2022-12-08T07:40:53.451Z,0.63
2022-12-08T07:59:39.526Z,1.14
2022-12-08T08:03:48.098Z,1.19
2022-12-08T08:11:19.013Z,1.29
2022-12-08T08:18:45.448Z,1.50
2022-12-08T08:26:35.767Z,2.00
2022-12-08T08:30:20.477Z,2.16
2022-12-08T08:34:07.547Z,2.52
2022-12-08T08:37:48.845Z,2.53
2022-12-08T08:45:06.559Z,2.70
2022-12-08T08:49:02.024Z,2.97
2022-12-08T08:52:46.125Z,3.14
2022-12-08T08:56:26.480Z,3.14
2022-12-08T09:00:05.902Z,3.35
2022-12-08T09:03:25.359Z,3.29
2022-12-08T09:10:54.617Z,3.46
2022-12-08T09:14:33.903Z,3.28
2022-12-08T09:18:34.647Z,2.99
2022-12-08T09:22:05.331Z,3.01
2022-12-08T09:29:17.921Z,3.40
2022-12-08T09:33:15.313Z,3.63
2022-12-08T09:36:51.786Z,3.37
2022-12-08T09:40:28.369Z,3.44
2022-12-08T10:17:51.328Z,3.81
2022-12-08T10:29:37.159Z,3.89
2022-12-08T11:18:13.613Z,3.97
2022-12-08T11:26:16.072Z,4.05
2022-12-08T11:29:37.991Z,3.89
2022-12-08T11:33:30.639Z,3.91
2022-12-08T11:37:27.482Z,3.79
2022-12-08T11:41:15.816Z,3.69
2022-12-08T11:44:38.617Z,3.83
2022-12-08T11:48:23.120Z,3.86
2022-12-08T11:51:46.734Z,3.89
2022-12-08T11:55:43.968Z,3.93
2022-12-08T11:59:02.800Z,3.96
2022-12-08T12:02:31.322Z,4.14
2022-12-08T12:06:58.556Z,4.03
2022-12-08T12:14:42.965Z,4.16
2022-12-08T12:18:22.940Z,4.29
2022-12-08T12:21:53.737Z,4.15
2022-12-08T12:25:37.840Z,4.04
2022-12-08T12:29:31.517Z,4.06
2022-12-08T12:33:04.588Z,3.99
2022-12-08T12:37:13.712Z,4.09
2022-12-08T12:40:53.701Z,4.02
2022-12-08T12:44:23.095Z,3.78
2022-12-08T12:48:13.567Z,3.78
2022-12-08T12:51:42.784Z,3.88
2022-12-08T12:55:28.725Z,3.99
2022-12-08T12:58:55.807Z,3.95
2022-12-08T13:02:27.407Z,3.94
2022-12-08T13:06:02.482Z,4.02
2022-12-08T13:09:46.257Z,3.98
2022-12-08T13:13:33.983Z,3.81
2022-12-08T13:17:17.208Z,3.64
2022-12-08T13:20:49.679Z,3.66
2022-12-08T13:24:20.898Z,3.61
2022-12-08T13:27:57.040Z,3.50
2022-12-08T13:31:51.988Z,3.50
2022-12-08T13:35:34.092Z,3.52
2022-12-08T13:39:07.151Z,3.42
2022-12-08T13:53:34.152Z,3.31
2022-12-08T13:55:49.826Z,3.28
2022-12-08T13:58:51.698Z,3.30
2022-12-08T14:02:21.298Z,3.30
2022-12-08T14:06:11.660Z,3.33
2022-12-08T14:09:09.980Z,3.13
2022-12-08T14:13:05.992Z,3.22
2022-12-08T14:16:30.006Z,3.37
2022-12-08T14:20:10.663Z,3.27
2022-12-08T14:23:28.026Z,3.21
2022-12-08T14:27:00.912Z,3.21
2022-12-08T14:30:27.468Z,3.18
2022-12-08T14:34:04.323Z,3.16
2022-12-08T14:37:19.106Z,3.21
2022-12-08T14:41:07.230Z,3.27
2022-12-08T14:44:45.492Z,3.26
2022-12-08T14:48:42.511Z,3.19
2022-12-08T14:52:13.306Z,3.06
2022-12-08T14:55:50.859Z,3.11
2022-12-08T14:59:23.233Z,3.08
2022-12-08T15:02:57.283Z,3.05
2022-12-08T15:06:12.347Z,3.17
2022-12-08T15:10:16.019Z,3.15
2022-12-08T15:13:36.404Z,3.02
2022-12-08T15:17:46.666Z,3.14
2022-12-08T15:21:10.081Z,3.17
2022-12-08T15:24:40.701Z,2.98
2022-12-08T15:28:02.138Z,3.02
2022-12-08T15:31:46.122Z,3.03
2022-12-08T15:35:15.531Z,2.94
2022-12-08T15:38:55.538Z,2.81
2022-12-08T15:42:39.000Z,2.84
2022-12-08T15:46:04.582Z,2.88
2022-12-08T15:49:25.444Z,2.80
2022-12-08T15:53:05.611Z,2.79
2022-12-08T15:57:10.610Z,2.77
2022-12-08T16:00:53.777Z,2.72
2022-12-08T16:08:45.142Z,2.53
2022-12-08T16:16:57.268Z,2.58
2022-12-08T16:21:06.558Z,2.30
2022-12-08T16:24:09.361Z,2.05
2022-12-08T16:28:02.934Z,2.03
2022-12-08T16:31:02.616Z,2.00
2022-12-08T16:34:44.262Z,1.94
2022-12-08T16:38:30.568Z,1.98
2022-12-08T16:42:25.433Z,1.93
2022-12-08T16:46:01.899Z,1.97
2022-12-08T16:49:28.340Z,1.94
2022-12-08T16:53:23.076Z,1.99
2022-12-08T16:56:44.918Z,1.98
2022-12-08T17:00:54.641Z,1.99
2022-12-08T17:04:32.675Z,2.08
2022-12-08T17:08:14.427Z,2.05
2022-12-08T17:11:48.083Z,2.09
2022-12-08T17:15:26.750Z,2.13
2022-12-08T17:18:31.063Z,2.09
2022-12-08T17:21:54.108Z,2.23
2022-12-08T17:25:19.626Z,2.12
2022-12-08T17:32:08.544Z,2.12
2022-12-08T17:35:18.869Z,2.12
2022-12-08T17:38:41.396Z,2.20
2022-12-08T17:42:07.877Z,2.17
2022-12-08T17:45:17.299Z,2.26
2022-12-08T17:48:40.985Z,2.14
2022-12-08T17:52:09.629Z,2.13
2022-12-08T17:55:24.231Z,2.26
2022-12-08T17:58:30.279Z,2.32
2022-12-08T18:01:57.434Z,2.22
2022-12-08T18:05:03.177Z,2.31
2022-12-08T18:08:14.229Z,2.26
2022-12-08T18:11:36.966Z,2.27
2022-12-08T18:14:42.275Z,2.26
2022-12-08T18:17:47.519Z,2.32
2022-12-08T18:20:54.412Z,2.40
2022-12-08T18:23:57.208Z,2.35
2022-12-08T18:27:01.596Z,2.36
2022-12-08T18:30:18.347Z,2.40
2022-12-08T18:33:26.380Z,2.31
2022-12-08T18:36:40.892Z,2.31
2022-12-08T18:40:24.182Z,2.30
2022-12-08T18:44:19.208Z,2.33
2022-12-08T18:47:25.822Z,2.30
2022-12-08T18:50:30.286Z,2.34
2022-12-08T18:53:34.673Z,2.43
2022-12-08T18:56:54.490Z,2.35
2022-12-08T19:00:07.784Z,2.35
2022-12-08T19:03:30.337Z,2.26
2022-12-08T19:06:33.708Z,2.32
2022-12-08T19:09:40.738Z,2.42
2022-12-08T19:13:04.511Z,2.32
2022-12-08T19:20:21.491Z,2.33
2022-12-08T19:23:29.204Z,2.28
2022-12-08T19:26:32.458Z,2.25
2022-12-08T19:29:35.275Z,2.28
2022-12-08T19:33:04.021Z,2.24
2022-12-08T19:36:50.066Z,2.25
2022-12-08T19:40:37.026Z,2.25
2022-12-08T19:44:40.320Z,2.31
2022-12-08T19:48:23.396Z,2.26
2022-12-08T19:52:08.191Z,2.22
2022-12-08T19:55:44.124Z,2.25
2022-12-08T19:59:03.300Z,2.25
2022-12-08T20:02:44.093Z,2.18
2022-12-08T20:05:59.886Z,2.35
2022-12-08T20:09:17.135Z,2.25
2022-12-08T20:12:22.575Z,2.33
2022-12-08T20:16:17.259Z,2.30
2022-12-08T20:19:44.128Z,2.42
2022-12-08T20:23:40.549Z,2.37
2022-12-08T20:27:19.762Z,2.43
2022-12-08T20:31:01.977Z,2.27
2022-12-08T20:34:26.174Z,2.27
2022-12-08T20:38:13.652Z,2.25
2022-12-08T20:41:55.324Z,2.21
2022-12-08T20:45:00.513Z,2.29
2022-12-08T20:48:04.121Z,2.26
2022-12-08T20:51:57.778Z,2.28
2022-12-08T20:55:00.869Z,2.16
2022-12-08T20:58:48.894Z,2.23
2022-12-08T21:02:28.214Z,2.30
2022-12-08T21:05:31.663Z,2.30
2022-12-08T21:08:55.408Z,2.31
2022-12-08T21:11:58.290Z,2.25
2022-12-08T21:15:01.939Z,2.25
2022-12-08T21:18:06.497Z,2.40
2022-12-08T21:21:28.269Z,2.29
2022-12-08T21:24:34.707Z,2.21
2022-12-08T21:28:18.715Z,2.26
2022-12-08T21:31:36.583Z,2.30
2022-12-08T21:35:12.837Z,2.31
2022-12-08T21:38:55.957Z,2.32
2022-12-08T21:42:45.236Z,2.09
2022-12-08T21:45:52.656Z,2.00
2022-12-08T21:49:19.214Z,1.98
2022-12-08T21:52:39.475Z,1.88
2022-12-08T21:56:09.573Z,1.87
2022-12-08T21:59:27.223Z,1.84
2022-12-08T22:02:51.255Z,1.83
2022-12-08T22:06:37.236Z,2.02
2022-12-08T22:09:40.157Z,2.02
2022-12-08T22:12:43.566Z,2.07
2022-12-08T22:16:11.516Z,2.15
2022-12-08T22:19:35.582Z,2.05
2022-12-08T22:22:58.232Z,2.12
2022-12-08T22:27:01.509Z,2.05
2022-12-08T22:30:25.184Z,2.00
2022-12-08T22:33:50.547Z,2.04
2022-12-08T22:36:57.925Z,1.93
2022-12-08T22:40:21.814Z,1.99
2022-12-08T22:44:09.248Z,1.96
2022-12-08T22:47:55.196Z,1.93
2022-12-08T22:51:18.466Z,1.98
2022-12-08T22:54:32.030Z,2.17
2022-12-08T22:57:36.605Z,2.06
2022-12-08T23:00:43.427Z,2.11
2022-12-08T23:04:26.216Z,2.05
2022-12-08T23:07:30.372Z,2.06
2022-12-08T23:10:34.532Z,2.05
2022-12-08T23:13:45.071Z,1.95
2022-12-08T23:16:49.247Z,1.91
2022-12-08T23:20:12.503Z,1.83
2022-12-08T23:23:18.893Z,2.00
2022-12-08T23:26:32.746Z,1.97
2022-12-08T23:30:22.327Z,2.00
2022-12-08T23:33:46.201Z,2.10
2022-12-08T23:37:09.423Z,2.11
2022-12-08T23:40:47.598Z,2.11
2022-12-08T23:44:23.387Z,2.09
2022-12-08T23:47:58.686Z,1.94
2022-12-08T23:51:02.683Z,2.08
2022-12-08T23:54:16.535Z,2.05
2022-12-08T23:57:40.203Z,2.12
